Latest Coastal Weather Observations for Albany Airport

IDW60701

Issued at 2:43 am WST Thursday 29 September 2016 (issued every 10 minutes, with the page automatically refreshed every 10 minutes)

About coastal observations | Map of coastal stations | Coastal observations for WA | Marine services | Other Formats
Station Details ID: 009999 Name: ALBANY AIRPORT Lat: -34.94 Lon: 117.82 Height: 68.4 m
Data from the previous 72 hours. | See also: Recent months at Albany Airport
Date/Time
WST
Temp
°C
Wind Pressure Rain since
9am
mm
Weather Cloud Vis
km
Sea
Height
m
Swell
Dir  Spd
kts
Gust
kts
hPa Trend Height
m
Period
s
Dir
29/02:30am 7.6 WNW 4 5 1022.3 - - - Cloudy 10 - - - -
29/02:00am 7.8 WNW 4 6 1022.5 - - - Cloudy 10 - - - -
29/01:30am 7.7 N 5 5 1023.0 - - - Cloudy 10 - - - -
29/01:00am 8.0 NE 3 4 1023.2 - - - Cloudy 10 - - - -
29/12:30am 8.3 E 3 5 1023.3 - - - Cloudy 10 - - - -
29/12:00am 9.0 SE 3 6 1023.4 - - - Cloudy 10 - - - -
 
Date/Time
WST
Temp
°C
Wind Pressure Rain since
9am
mm
Weather Cloud Vis
km
Sea
Height
m
Swell
Dir  Spd
kts
Gust
kts
hPa Trend Height
m
Period
s
Dir
28/11:30pm 7.8 CALM 0 0 1023.4 - - - Cloudy 10 - - - -
28/11:00pm 8.1 WNW 4 5 1023.6 - - - Cloudy 10 - - - -
28/10:30pm 8.1 WNW 4 5 1023.8 - - - Cloudy 10 - - - -
28/10:00pm 8.0 WNW 5 5 1024.0 - - - Cloudy 10 - - - -
28/09:30pm 7.9 WNW 4 5 1024.3 - - - Cloudy 10 - - - -
28/09:00pm 8.1 W 3 4 1024.4 - - - Mostly cloudy 10 - - - -
28/08:30pm 8.2 SSW 3 3 1024.1 - - - Cloudy 10 - - - -
28/08:00pm 8.4 SSW 5 6 1024.1 - - - Cloudy 10 - - - -
28/07:30pm 9.1 S 7 10 1023.8 - - - Cloudy 10 - - - -
28/07:00pm 9.1 SSW 5 7 1023.6 - - - Cloudy 10 - - - -
28/06:30pm 9.4 SSW 6 9 1023.4 - - - Cloudy 10 - - - -
28/06:00pm 9.7 SW 7 9 1023.7 - - - Cloudy 10 - - - -
28/05:30pm - SW 11 15 - - 0.0 - - - - - - -
28/05:00pm 10.8 SW 10 15 1023.3 - 0.0 - Partly cloudy 10 - - - -
28/04:30pm 10.3 SSW 12 15 1022.9 - 0.0 - Partly cloudy 10 - - - -
28/04:00pm 10.6 SW 9 13 1022.7 - 0.0 - Partly cloudy 10 - - - -
28/03:30pm 10.7 SW 13 19 1022.8 - 0.0 - Partly cloudy - - - - -
28/03:00pm 10.7 SSW 15 20 1022.9 - 0.0 - Cloudy - - - - -
28/02:30pm 12.2 SW 16 22 1022.5 - 0.0 - Partly cloudy - - - - -
28/02:00pm 10.1 S 14 21 1022.5 - 0.0 - Partly cloudy 10 - - - -
28/01:30pm 10.4 SSW 15 25 1022.6 - 0.0 - Partly cloudy 10 - - - -
28/01:00pm 11.2 SW 16 24 1022.2 - 0.0 - Partly cloudy 10 - - - -
28/12:30pm 11.1 S 13 19 1022.1 - 0.0 - Mostly clear 10 - - - -
28/12:19pm 11.6 SSW 17 27 1022.2 - 0.0 - Mostly clear 10 - - - -
28/12:00pm 10.7 SSW 17 25 1022.4 - 0.0 - Partly cloudy 10 - - - -
28/11:30am 12.2 SSW 17 25 1021.8 - 0.0 - Partly cloudy 10 - - - -
28/11:02am 12.1 SSW 17 27 1021.5 - 0.0 - Mostly cloudy 10 - - - -
28/11:00am 11.9 SSW 16 24 1021.5 - 0.0 - Mostly cloudy 10 - - - -
28/10:51am 11.5 SSW 17 27 1021.3 - 0.0 - Partly cloudy 10 - - - -
28/10:30am 11.4 SSW 19 25 1021.2 - 0.0 - Partly cloudy 10 - - - -
28/10:00am 11.1 SSW 17 24 1021.0 - 0.0 - Partly cloudy 10 - - - -
28/09:30am 9.7 SSW 18 34 1020.7 - 0.0 - Mostly clear 10 - - - -
28/09:07am 10.5 SSW 16 26 1020.4 - 0.0 - Partly cloudy 10 - - - -
28/09:00am 10.1 SSW 17 23 1020.6 - 20.4 - Mostly cloudy 10 - - - -
28/08:47am 10.0 SSW 17 27 1020.1 - 20.4 - Partly cloudy 10 - - - -
28/08:30am 10.4 SSW 15 23 1019.8 - 20.4 - Mostly clear 10 - - - -
28/08:00am 9.3 SSW 18 28 1019.2 - 20.4 - Partly cloudy 10 - - - -
28/07:43am 9.7 SSW 18 28 1018.8 - 20.4 - Mostly clear 10 - - - -
28/07:30am 9.1 SSW 15 23 1018.7 - 20.4 - Mostly clear 10 - - - -
28/07:00am 7.9 SSW 15 26 1018.3 - 20.4 - Partly cloudy 10 - - - -
28/06:30am 8.1 SSW 16 23 1017.6 - 20.4 - Partly cloudy 10 - - - -
28/06:01am 7.0 SSW 17 27 1017.3 - 20.4 - Partly cloudy 10 - - - -
28/06:00am 6.9 SSW 18 27 1017.5 - 20.4 - Cloudy 10 - - - -
28/05:52am 7.1 S 20 27 1017.1 - 20.4 - Partly cloudy 10 - - - -
28/05:36am 7.7 SW 16 26 1016.6 - 20.4 - Partly cloudy 10 - - - -
28/05:30am 7.7 SSW 18 26 1016.5 - 20.4 - Partly cloudy 10 - - - -
28/05:01am 7.6 SSW 16 26 1015.9 - 20.4 - Partly cloudy 10 - - - -
28/05:00am 7.4 SSW 15 22 1016.0 - 20.4 - Partly cloudy 10 - - - -
28/04:46am 7.5 SSW 15 26 1015.6 - 20.4 - Partly cloudy 10 - - - -
28/04:30am 7.5 SW 17 23 1015.2 - 20.4 - Partly cloudy 10 - - - -
28/04:19am 6.5 SSW 14 21 1015.0 - 20.2 - Partly cloudy 10 - - - -
28/04:06am 5.9 SSW 18 25 1015.0 - 20.2 - Partly cloudy 6 - - - -
28/04:00am 6.3 SSW 28 39 1014.9 - 20.0 - Partly cloudy 10 - - - -
28/03:59am 7.1 SSW 17 39 1014.9 - 20.0 - Partly cloudy 10 - - - -
28/03:30am 7.1 SW 16 26 1014.4 - 19.8 - Partly cloudy 10 - - - -
28/03:01am 7.4 SW 18 28 1014.0 - 19.8 - Partly cloudy 10 - - - -
28/03:00am 7.4 SW 19 28 1014.1 - 19.8 - Mostly clear 10 - - - -
28/02:39am 8.0 SW 20 30 1013.6 - 19.8 - Partly cloudy 10 - - - -
28/02:30am 7.9 SW 17 25 1013.5 - 19.8 - Partly cloudy 10 - - - -
28/02:00am 7.6 SW 17 25 1013.3 - 19.8 - Partly cloudy 10 - - - -
28/01:39am 7.6 SW 16 26 1013.0 - 19.8 - Partly cloudy 10 - - - -
28/01:30am 6.7 S 10 15 1012.9 - 19.8 - Partly cloudy 10 - - - -
28/01:17am 6.6 SSW 17 27 1012.9 - 19.8 - Partly cloudy 10 - - - -
28/01:00am 7.4 SSW 14 21 1012.6 - 19.8 - Partly cloudy 10 - - - -
28/12:32am 7.2 SSW 17 25 1012.3 - 19.8 - Partly cloudy 10 - - - -
28/12:30am 7.1 SSW 17 25 1012.2 - 19.8 - Partly cloudy 10 - - - -
28/12:15am 6.3 SSW 18 27 1012.4 - 19.8 - Partly cloudy 6 - - - -
28/12:13am 6.5 SSW 17 27 1012.3 - 19.6 - Partly cloudy 10 - - - -
28/12:00am 7.1 SSW 18 26 1012.0 - 19.2 - Cloudy 10 - - - -
 
Date/Time
WST
Temp
°C
Wind Pressure Rain since
9am
mm
Weather Cloud Vis
km
Sea
Height
m
Swell
Dir  Spd
kts
Gust
kts
hPa Trend Height
m
Period
s
Dir
27/11:55pm 6.8 SW 16 23 1011.8 - 19.2 - Partly cloudy 10 - - - -
27/11:30pm 5.0 WSW 25 41 1012.1 - 18.6 - Partly cloudy 3 - - - -
27/11:28pm 5.1 SW 29 41 1012.1 - 18.2 - Partly cloudy 5 - - - -
27/11:00pm 6.5 SW 14 19 1011.3 - 17.2 - Partly cloudy 10 - - - -
27/10:46pm 6.5 SW 19 29 1011.1 - 17.2 - Partly cloudy 10 - - - -
27/10:33pm 6.3 SW 16 27 1011.2 - 17.2 - Partly cloudy 4 - - - -
27/10:30pm 5.9 SW 15 21 1011.3 - 17.2 - Partly cloudy 3 - - - -
27/10:20pm 6.6 SW 16 22 1010.8 - 15.4 - Partly cloudy 6 - - - -
27/10:00pm 6.8 WSW 13 18 1010.3 - 14.6 - Partly cloudy 10 - - - -
27/09:30pm 6.6 SW 13 19 1010.0 - 13.8 - Partly cloudy 9 - - - -
27/09:18pm 6.9 SW 16 23 1010.4 - 13.6 - Partly cloudy 10 - - - -
27/09:01pm 6.6 WSW 24 34 1010.3 - 13.4 - Partly cloudy 4 - - - -
27/09:00pm 6.7 WSW 25 34 1010.5 - 13.4 - Cloudy 4 - - - -
27/08:58pm 6.9 WSW 26 34 1010.2 - 13.2 - Partly cloudy 5 - - - -
27/08:56pm 7.8 WSW 25 34 1009.9 - 13.0 - Partly cloudy 10 - - - -
27/08:30pm 8.2 WSW 14 20 1009.4 - 12.8 - Partly cloudy 10 - - - -
27/08:02pm 7.6 WSW 15 25 1009.1 - 12.8 - Partly cloudy 9 - - - -
27/08:00pm 7.4 WSW 14 23 1009.1 - 12.8 - Partly cloudy 9 - - - -
27/07:44pm 7.6 WSW 20 30 1008.8 - 12.6 - Partly cloudy 6 - - - -
27/07:43pm 7.7 WSW 21 30 1008.9 - 12.6 - Partly cloudy 6 - - - -
27/07:41pm 7.7 W 22 30 1008.9 - 12.4 - Partly cloudy 10 - - - -
27/07:30pm 7.4 WNW 10 13 1008.2 - 12.2 - Partly cloudy 10 - - - -
27/07:00pm 6.9 WNW 10 11 1007.7 - 12.0 - Partly cloudy 10 - - - -
27/06:44pm 6.7 W 11 15 1007.4 - 12.0 - Partly cloudy 10 - - - -
27/06:30pm 6.6 WSW 20 37 1007.6 - 11.8 - Partly cloudy 2 - - - -
27/06:22pm 7.1 WSW 20 37 1008.0 - 11.2 - Partly cloudy 3 - - - -
27/06:06pm 8.1 WSW 15 26 1007.1 - 9.2 - Partly cloudy 6 - - - -
27/06:05pm 8.3 WSW 13 19 1007.3 - 9.0 - Partly cloudy 6 - - - -
27/06:00pm 9.1 WSW 11 19 1007.1 - 9.0 - Cloudy 10 - - - -
27/05:30pm 8.9 SW 16 22 1006.3 - 9.0 - Partly cloudy 10 - - - -
27/05:00pm 8.9 SW 15 25 1005.9 - 8.8 - Partly cloudy 10 - - - -
27/04:59pm 9.0 SW 15 25 1005.9 - 8.8 - Partly cloudy 10 - - - -
27/04:30pm 8.6 SW 17 24 1005.6 - 8.6 - Partly cloudy 10 - - - -
27/04:18pm 8.7 WSW 16 23 1005.5 - 8.4 - Partly cloudy 10 - - - -
27/04:13pm 8.6 WSW 16 23 1005.3 - 8.4 - Partly cloudy 7 - - - -
27/04:00pm 8.7 WSW 14 20 1005.3 - 8.0 - Partly cloudy 2 - - - -
27/03:30pm 9.5 SW 15 23 1004.5 - 4.4 - Partly cloudy 5 - - - -
27/03:27pm 9.6 SW 16 23 1004.5 - 4.2 - Partly cloudy 6 - - - -
27/03:00pm 10.7 SW 14 21 1004.3 - 3.8 - Cloudy 9 - - - -
27/02:30pm 10.7 SW 15 23 1003.8 - 3.8 - Mostly clear 10 - - - -
27/02:00pm 10.9 SW 17 23 1003.6 - 3.8 Showers Mostly clear 10 - - - -
27/01:42pm 11.8 SW 20 30 1003.3 - 3.8 Showers Mostly clear 10 - - - -
27/01:30pm 12.0 SW 19 27 1003.0 - 3.8 Showers Partly cloudy 9 - - - -
27/01:25pm 11.9 SW 18 26 1002.9 - 3.8 Showers Mostly clear 8 - - - -
27/01:19pm 11.6 W 21 33 1002.9 - 3.8 Showers Mostly clear 5 - - - -
27/01:18pm 11.6 W 19 24 1003.0 - 3.8 Showers Mostly clear 5 - - - -
27/01:08pm 12.0 WNW 21 31 1002.6 - 2.8 Showers Mostly clear 4 - - - -
27/01:00pm 11.7 WNW 19 28 1002.4 - 2.6 Showers Mostly clear 4 - - - -
27/12:51pm 12.1 W 25 35 1002.6 - 2.4 Showers Mostly clear 4 - - - -
27/12:49pm 12.4 W 29 35 1002.7 - 2.4 Showers Mostly clear 4 - - - -
27/12:47pm 13.6 NW 18 30 1002.5 - 1.4 Showers Partly cloudy 3 - - - -
27/12:45pm 14.7 NW 17 25 1002.2 - 0.8 Showers Partly cloudy 2 - - - -
27/12:30pm 14.6 NW 16 21 1002.4 - 0.8 - Partly cloudy 10 - - - -
27/12:00pm 13.3 NW 20 23 1003.3 - 0.8 - Cloudy 10 - - - -
27/11:38am 14.3 W 17 29 1003.4 - 0.2 Showers Mostly clear 5 - - - -
27/11:30am 15.8 WNW 14 19 1003.3 - 0.0 Showers Partly cloudy 6 - - - -
27/11:00am 16.7 NW 17 25 1004.1 - 0.0 - Partly cloudy 10 - - - -
27/10:30am 16.5 NW 19 26 1005.2 - 0.0 - Mostly cloudy 10 - - - -
27/10:00am 16.3 NW 17 27 1006.0 - 0.0 - Partly cloudy 10 - - - -
27/09:35am 15.8 NNW 15 25 1006.5 - 0.0 - Partly cloudy 10 - - - -
27/09:30am 15.5 NNW 15 19 1006.6 - 0.0 - Partly cloudy 10 - - - -
27/09:00am 14.8 NNW 14 23 1007.6 - 4.6 - Mostly clear 10 - - - -
27/08:30am 13.8 NW 14 18 1007.9 - 4.6 - Mostly clear 10 - - - -
27/08:00am 12.4 NNW 11 16 1008.6 - 4.6 - Mostly clear 10 - - - -
27/07:30am 12.0 NNW 9 13 1009.1 - 4.6 - Mostly clear 10 - - - -
27/07:00am 10.9 NNW 8 12 1009.5 - 4.6 - Mostly clear 10 - - - -
27/06:30am 10.2 NNW 9 11 1010.1 - 4.6 - Partly cloudy 10 - - - -
27/06:00am 10.0 NNW 8 11 1010.4 - 4.6 - Mostly cloudy 10 - - - -
27/05:30am 10.2 NNW 8 10 1010.4 - 4.6 - Partly cloudy 10 - - - -
27/05:00am 10.2 NNW 7 9 1010.8 - 4.6 - Partly cloudy 10 - - - -
27/04:30am 9.7 NNW 7 9 1011.1 - 4.6 - Partly cloudy 10 - - - -
27/04:00am 10.1 NW 7 8 1011.2 - 4.6 - Partly cloudy 10 - - - -
27/03:30am 10.4 NW 10 15 1011.4 - 4.6 - Partly cloudy 10 - - - -
27/03:00am 10.3 NW 9 12 1012.1 - 4.6 - Cloudy 10 - - - -
27/02:30am 10.3 NNW 8 11 1012.2 - 4.6 - Partly cloudy 10 - - - -
27/02:00am 10.0 NNW 8 10 1012.5 - 4.6 - Partly cloudy 10 - - - -
27/01:30am 9.9 NNW 7 9 1013.0 - 4.6 - - 10 - - - -
27/01:00am 10.4 NW 9 11 1013.4 - 4.6 - Cloudy 10 - - - -
27/12:30am 10.4 NW 8 11 1013.6 - 4.4 - Cloudy 10 - - - -
27/12:00am 10.5 NNW 7 9 1013.9 - 4.4 - Cloudy 10 - - - -
 
Date/Time
WST
Temp
°C
Wind Pressure Rain since
9am
mm
Weather Cloud Vis
km
Sea
Height
m
Swell
Dir  Spd
kts
Gust
kts
hPa Trend Height
m
Period
s
Dir
26/11:40pm 10.6 NW 7 9 1013.9 - 4.4 - Partly cloudy 10 - - - -
26/11:30pm 10.9 WNW 7 9 1013.9 - 4.4 - Partly cloudy 6 - - - -
26/11:15pm 11.0 WNW 6 9 1014.1 - 4.4 - Partly cloudy 6 - - - -
26/11:00pm 10.8 WNW 5 6 1014.1 - 4.2 - Partly cloudy 10 - - - -
26/10:30pm 10.9 NW 6 7 1014.3 - 4.2 - Partly cloudy 10 - - - -
26/10:07pm 11.0 NW 6 7 1014.5 - 4.2 - Partly cloudy 10 - - - -
26/10:00pm 11.1 WNW 5 7 1014.6 - 4.2 - Partly cloudy 10 - - - -
26/09:41pm 11.4 WSW 5 8 1014.7 - 4.2 - Partly cloudy 10 - - - -
26/09:40pm 11.4 WSW 5 8 1014.8 - 4.2 - Partly cloudy 10 - - - -
26/09:30pm 11.4 W 7 9 1014.7 - 4.2 - Partly cloudy 6 - - - -
26/09:29pm 11.4 W 7 9 1014.7 - 4.2 - Partly cloudy 6 - - - -
26/09:00pm 11.4 WNW 7 10 1014.9 - 4.0 - Cloudy 10 - - - -
26/08:30pm 11.5 WNW 8 10 1014.8 - 3.8 - Partly cloudy 10 - - - -
26/08:14pm 11.4 WNW 8 9 1014.7 - 3.8 - Partly cloudy 10 - - - -
26/08:00pm 11.4 W 9 12 1014.6 - 3.8 - Partly cloudy 5 - - - -
26/07:56pm 11.5 W 9 12 1014.7 - 3.8 - Partly cloudy 6 - - - -
26/07:51pm 11.5 W 9 12 1014.6 - 3.6 - Partly cloudy 10 - - - -
26/07:31pm 11.4 W 11 17 1014.5 - 3.6 - Partly cloudy 4 - - - -
26/07:30pm 11.4 W 11 17 1014.5 - 3.4 - Partly cloudy 4 - - - -
26/07:21pm 11.6 WSW 12 19 1014.4 - 3.4 - Partly cloudy 2 - - - -
26/07:13pm 11.9 WNW 8 10 1014.3 - 2.0 - Partly cloudy 6 - - - -
26/07:00pm 11.9 NW 9 13 1013.9 - 1.8 - Partly cloudy 10 - - - -
26/06:30pm 11.8 NW 8 9 1013.9 - 1.8 - Partly cloudy 10 - - - -
26/06:00pm 11.8 W 10 12 1014.1 - 1.8 - Cloudy 10 - - - -
26/05:47pm 11.9 W 11 14 1014.0 - 1.8 - Partly cloudy 10 - - - -
26/05:30pm 11.9 W 10 15 1014.1 - 1.8 - Partly cloudy 5 - - - -
26/05:16pm 11.9 W 10 14 1014.1 - 1.6 - Partly cloudy 5 - - - -
26/05:10pm 11.8 W 11 15 1014.1 - 1.6 - Partly cloudy 10 - - - -
26/05:00pm 11.7 W 11 14 1013.9 - 1.6 - Partly cloudy 6 - - - -
26/04:58pm 11.7 W 11 14 1014.0 - 1.6 - Partly cloudy 5 - - - -
26/04:33pm 11.8 WSW 15 25 1014.0 - 1.6 - Partly cloudy 4 - - - -
26/04:30pm 11.9 WSW 13 19 1014.0 - 1.4 - Partly cloudy 4 - - - -
26/04:00pm 12.3 WSW 12 17 1013.5 - 0.6 - Partly cloudy 4 - - - -
26/03:54pm 12.4 WSW 12 18 1013.4 - 0.4 - Partly cloudy 6 - - - -
26/03:35pm 12.3 WSW 15 21 1013.2 - 0.4 - Partly cloudy 9 - - - -
26/03:30pm 12.3 SW 15 21 1013.2 - 0.4 - Partly cloudy 10 - - - -
26/03:28pm 12.3 SW 15 21 1013.1 - 0.4 - Partly cloudy 10 - - - -
26/03:17pm 12.9 SW 15 20 1013.0 - 0.2 - Partly cloudy 6 - - - -
26/03:00pm 15.7 WNW 17 25 1012.8 - 0.0 - Cloudy 10 - - - -
26/02:30pm 17.6 WNW 16 23 1012.1 - 0.0 - Partly cloudy 10 - - - -
26/02:00pm 15.6 W 14 19 1012.4 - 0.0 - Partly cloudy 10 - - - -
26/01:30pm 17.1 WNW 14 18 1012.3 - 0.0 - Partly cloudy 10 - - - -
26/01:00pm 16.9 WNW 17 27 1012.2 - 0.0 - Partly cloudy 10 - - - -
26/12:30pm 17.2 WNW 17 28 1012.7 - 0.0 - Partly cloudy 10 - - - -
26/12:22pm 16.1 WNW 18 28 1012.8 - 0.0 - Partly cloudy 10 - - - -
26/12:00pm 16.8 WNW 19 28 1012.9 - 0.0 - Cloudy 10 - - - -
26/11:44am 16.7 WNW 17 27 1013.0 - 0.0 - Partly cloudy 10 - - - -
26/11:30am 17.1 WNW 18 27 1013.0 - 0.0 - Partly cloudy 10 - - - -
26/11:00am 16.7 WNW 19 28 1013.5 - 0.0 - Partly cloudy 10 - - - -
26/10:30am 16.5 WNW 19 26 1013.6 - 0.0 - Partly cloudy 10 - - - -
26/10:24am 15.7 WNW 19 29 1013.8 - 0.0 - Partly cloudy 10 - - - -
26/10:00am 15.3 WNW 20 29 1013.9 - 0.0 - Partly cloudy 10 - - - -
26/09:41am 15.0 WNW 20 30 1014.2 - 0.0 - Partly cloudy 10 - - - -
26/09:30am 14.8 WNW 19 24 1014.3 - 0.0 - Partly cloudy 10 - - - -
26/09:00am 13.6 WNW 18 25 1014.7 - 0.2 - Cloudy 10 - - - -
26/08:30am 13.2 WNW 18 25 1014.5 - 0.2 - Partly cloudy 10 - - - -
26/08:00am 11.9 NW 17 23 1014.5 - 0.2 - Partly cloudy 10 - - - -
26/07:30am 11.0 NW 17 25 1014.9 - 0.2 - Partly cloudy 10 - - - -
26/07:00am 10.2 NW 16 22 1014.9 - 0.2 - Partly cloudy 10 - - - -
26/06:30am 10.1 NW 15 20 1015.0 - 0.2 - Partly cloudy 10 - - - -
26/06:00am 9.6 NNW 13 18 1014.9 - 0.2 - Cloudy 10 - - - -
26/05:30am 9.5 NNW 15 21 1014.5 - 0.2 - Cloudy 10 - - - -
26/05:00am 9.5 NNW 14 19 1014.7 - 0.2 - Cloudy 10 - - - -
26/04:30am 9.1 NNW 13 19 1014.6 - 0.2 - Partly cloudy 10 - - - -
26/04:00am 8.6 NNW 12 16 1015.1 - 0.2 - Partly cloudy 10 - - - -
26/03:30am 9.1 NW 12 15 1015.4 - 0.2 - Cloudy 10 - - - -
26/03:00am 8.9 NW 10 15 1015.7 - 0.2 - Cloudy 10 - - - -

Other Formats:

Comma delimited format used in spreadsheet applications
http://www.bom.gov.au/fwo/IDW60701/IDW60701.94802.axf

JavaScript Object Notation format (JSON) in row-major order
http://www.bom.gov.au/fwo/IDW60701/IDW60701.94802.json